sensor_id;sensor_type;location;lat;lon;timestamp;pressure;altitude;pressure_sealevel;temperature;humidity
65666;BME280;52365;47.464;18.976;2022-08-05T00:00:11;99794.75;;;26.49;35.26
65666;BME280;52365;47.464;18.976;2022-08-05T00:00:47;99789.56;;;26.53;36.16
65666;BME280;52365;47.464;18.976;2022-08-05T00:01:24;99789.22;;;26.49;34.98
65666;BME280;52365;47.464;18.976;2022-08-05T00:02:00;99789.63;;;26.37;34.88
65666;BME280;52365;47.464;18.976;2022-08-05T00:02:37;99789.28;;;26.33;34.92
65666;BME280;52365;47.464;18.976;2022-08-05T00:03:13;99792.78;;;26.34;35.33
65666;BME280;52365;47.464;18.976;2022-08-05T00:03:50;99793.88;;;26.39;35.97
65666;BME280;52365;47.464;18.976;2022-08-05T00:04:26;99786.84;;;26.37;35.97
65666;BME280;52365;47.464;18.976;2022-08-05T00:05:03;99786.63;;;26.18;35.22
65666;BME280;52365;47.464;18.976;2022-08-05T00:05:39;99781.25;;;25.95;35.38
65666;BME280;52365;47.464;18.976;2022-08-05T00:06:17;99785.38;;;26.11;35.25
65666;BME280;52365;47.464;18.976;2022-08-05T00:06:54;99785.63;;;26.31;35.13
65666;BME280;52365;47.464;18.976;2022-08-05T00:07:30;99784.09;;;26.37;35.35
65666;BME280;52365;47.464;18.976;2022-08-05T00:08:06;99783.78;;;26.58;35.61
65666;BME280;52365;47.464;18.976;2022-08-05T00:08:44;99783.41;;;26.62;36.48
65666;BME280;52365;47.464;18.976;2022-08-05T00:09:20;99790.53;;;26.48;37.50
65666;BME280;52365;47.464;18.976;2022-08-05T00:09:56;99782.03;;;26.46;37.03
65666;BME280;52365;47.464;18.976;2022-08-05T00:10:32;99789.41;;;26.43;37.32
65666;BME280;52365;47.464;18.976;2022-08-05T00:11:11;99787.81;;;26.32;35.67
65666;BME280;52365;47.464;18.976;2022-08-05T00:11:48;99786.59;;;26.26;35.06
65666;BME280;52365;47.464;18.976;2022-08-05T00:12:24;99783.81;;;26.26;35.46
65666;BME280;52365;47.464;18.976;2022-08-05T00:13:00;99783.25;;;26.27;36.47
65666;BME280;52365;47.464;18.976;2022-08-05T00:13:37;99784.03;;;26.20;34.59
65666;BME280;52365;47.464;18.976;2022-08-05T00:14:14;99780.34;;;26.25;34.52
65666;BME280;52365;47.464;18.976;2022-08-05T00:14:50;99780.25;;;26.33;35.68
65666;BME280;52365;47.464;18.976;2022-08-05T00:15:26;99787.19;;;26.49;35.63
65666;BME280;52365;47.464;18.976;2022-08-05T00:16:03;99775.09;;;26.62;37.08
65666;BME280;52365;47.464;18.976;2022-08-05T00:16:40;99787.19;;;26.49;37.23
65666;BME280;52365;47.464;18.976;2022-08-05T00:17:16;99786.09;;;26.45;37.10
65666;BME280;52365;47.464;18.976;2022-08-05T00:17:52;99790.94;;;26.36;36.56
65666;BME280;52365;47.464;18.976;2022-08-05T00:18:28;99786.53;;;26.33;37.54
65666;BME280;52365;47.464;18.976;2022-08-05T00:19:04;99780.34;;;26.25;38.22
65666;BME280;52365;47.464;18.976;2022-08-05T00:19:40;99788.78;;;26.27;37.84
65666;BME280;52365;47.464;18.976;2022-08-05T00:20:16;99785.78;;;26.08;38.46
65666;BME280;52365;47.464;18.976;2022-08-05T00:20:52;99790.06;;;25.94;36.50
65666;BME280;52365;47.464;18.976;2022-08-05T00:21:29;99785.69;;;25.91;35.57
65666;BME280;52365;47.464;18.976;2022-08-05T00:22:05;99784.91;;;25.98;35.33
65666;BME280;52365;47.464;18.976;2022-08-05T00:22:41;99790.78;;;26.02;35.26
65666;BME280;52365;47.464;18.976;2022-08-05T00:23:18;99784.62;;;26.11;35.74
65666;BME280;52365;47.464;18.976;2022-08-05T00:23:54;99781.16;;;26.10;36.95
65666;BME280;52365;47.464;18.976;2022-08-05T00:24:30;99787.41;;;26.11;37.17
65666;BME280;52365;47.464;18.976;2022-08-05T00:25:06;99786.75;;;26.28;36.76
65666;BME280;52365;47.464;18.976;2022-08-05T00:25:43;99788.78;;;26.27;37.68
65666;BME280;52365;47.464;18.976;2022-08-05T00:26:19;99787.47;;;26.03;35.95
65666;BME280;52365;47.464;18.976;2022-08-05T00:26:55;99780.50;;;25.95;35.86
65666;BME280;52365;47.464;18.976;2022-08-05T00:27:31;99788.09;;;25.86;38.45
65666;BME280;52365;47.464;18.976;2022-08-05T00:28:07;99782.03;;;25.80;36.82
65666;BME280;52365;47.464;18.976;2022-08-05T00:28:44;99787.41;;;25.78;36.24
65666;BME280;52365;47.464;18.976;2022-08-05T00:29:20;99778.38;;;25.78;35.83
65666;BME280;52365;47.464;18.976;2022-08-05T00:29:56;99773.94;;;25.82;35.67
65666;BME280;52365;47.464;18.976;2022-08-05T00:30:32;99784.03;;;25.88;36.79
65666;BME280;52365;47.464;18.976;2022-08-05T00:31:08;99780.16;;;25.91;36.26
65666;BME280;52365;47.464;18.976;2022-08-05T00:31:44;99778.75;;;25.74;35.92
65666;BME280;52365;47.464;18.976;2022-08-05T00:32:21;99779.84;;;25.71;36.01
65666;BME280;52365;47.464;18.976;2022-08-05T00:32:57;99785.38;;;25.71;36.02
65666;BME280;52365;47.464;18.976;2022-08-05T00:33:33;99776.88;;;25.84;35.84
65666;BME280;52365;47.464;18.976;2022-08-05T00:34:09;99778.13;;;25.91;36.35
65666;BME280;52365;47.464;18.976;2022-08-05T00:34:46;99783.28;;;25.95;37.48
65666;BME280;52365;47.464;18.976;2022-08-05T00:35:22;99782.09;;;26.05;37.00
65666;BME280;52365;47.464;18.976;2022-08-05T00:35:58;99781.75;;;26.01;38.01
65666;BME280;52365;47.464;18.976;2022-08-05T00:36:34;99778.25;;;26.01;37.77
65666;BME280;52365;47.464;18.976;2022-08-05T00:37:10;99781.41;;;25.97;38.19
65666;BME280;52365;47.464;18.976;2022-08-05T00:37:46;99781.03;;;26.01;38.06
65666;BME280;52365;47.464;18.976;2022-08-05T00:38:22;99786.91;;;26.05;37.61
65666;BME280;52365;47.464;18.976;2022-08-05T00:38:59;99783.44;;;25.97;37.43
65666;BME280;52365;47.464;18.976;2022-08-05T00:39:35;99779.03;;;25.94;37.88
65666;BME280;52365;47.464;18.976;2022-08-05T00:40:11;99772.03;;;25.93;37.88
65666;BME280;52365;47.464;18.976;2022-08-05T00:40:52;99780.72;;;25.89;38.42
65666;BME280;52365;47.464;18.976;2022-08-05T00:41:31;99774.66;;;25.91;38.12
65666;BME280;52365;47.464;18.976;2022-08-05T00:42:07;99779.81;;;25.86;38.63
65666;BME280;52365;47.464;18.976;2022-08-05T00:42:43;99784.25;;;25.82;39.71
65666;BME280;52365;47.464;18.976;2022-08-05T00:43:21;99773.94;;;25.82;39.26
65666;BME280;52365;47.464;18.976;2022-08-05T00:43:57;99769.31;;;25.85;39.57
65666;BME280;52365;47.464;18.976;2022-08-05T00:44:33;99780.09;;;25.58;36.45
65666;BME280;52365;47.464;18.976;2022-08-05T00:45:10;99769.06;;;25.58;36.37
65666;BME280;52365;47.464;18.976;2022-08-05T00:45:46;99775.47;;;25.68;36.43
65666;BME280;52365;47.464;18.976;2022-08-05T00:46:23;99776.22;;;25.61;36.25
65666;BME280;52365;47.464;18.976;2022-08-05T00:46:59;99780.22;;;25.68;36.55
65666;BME280;52365;47.464;18.976;2022-08-05T00:47:35;99774.31;;;25.71;38.08
65666;BME280;52365;47.464;18.976;2022-08-05T00:48:21;99774.31;;;25.71;38.21
65666;BME280;52365;47.464;18.976;2022-08-05T00:48:57;99779.84;;;25.71;37.85
65666;BME280;52365;47.464;18.976;2022-08-05T00:49:34;99779.28;;;25.80;37.86
65666;BME280;52365;47.464;18.976;2022-08-05T00:50:10;99777.47;;;25.68;36.52
65666;BME280;52365;47.464;18.976;2022-08-05T00:50:48;99776.19;;;25.69;36.18
65666;BME280;52365;47.464;18.976;2022-08-05T00:51:24;99778.94;;;25.76;36.79
65666;BME280;52365;47.464;18.976;2022-08-05T00:52:01;99765.66;;;25.82;37.95
65666;BME280;52365;47.464;18.976;2022-08-05T00:52:38;99780.41;;;25.77;39.58
65666;BME280;52365;47.464;18.976;2022-08-05T00:53:19;99777.09;;;25.71;38.96
65666;BME280;52365;47.464;18.976;2022-08-05T00:53:56;99778.75;;;25.74;38.83
65666;BME280;52365;47.464;18.976;2022-08-05T00:54:32;99770.69;;;25.69;39.19
65666;BME280;52365;47.464;18.976;2022-08-05T00:55:08;99773.09;;;25.57;39.97
65666;BME280;52365;47.464;18.976;2022-08-05T00:55:44;99769.84;;;25.51;39.49
65666;BME280;52365;47.464;18.976;2022-08-05T00:56:20;99771.09;;;25.50;39.57
65666;BME280;52365;47.464;18.976;2022-08-05T00:56:56;99768.19;;;25.48;37.73
65666;BME280;52365;47.464;18.976;2022-08-05T00:57:32;99774.81;;;25.45;39.14
65666;BME280;52365;47.464;18.976;2022-08-05T00:58:10;99770.94;;;25.48;39.25
65666;BME280;52365;47.464;18.976;2022-08-05T00:58:46;99769.50;;;25.39;40.34
65666;BME280;52365;47.464;18.976;2022-08-05T00:59:22;99771.69;;;25.33;39.48
65666;BME280;52365;47.464;18.976;2022-08-05T00:59:58;99767.13;;;25.35;39.10
65666;BME280;52365;47.464;18.976;2022-08-05T01:00:34;99767.13;;;25.35;39.75
65666;BME280;52365;47.464;18.976;2022-08-05T01:01:11;99763.78;;;25.37;39.60
65666;BME280;52365;47.464;18.976;2022-08-05T01:01:48;99766.38;;;25.35;39.78
65666;BME280;52365;47.464;18.976;2022-08-05T01:02:24;99764.34;;;25.35;39.50
65666;BME280;52365;47.464;18.976;2022-08-05T01:03:00;99771.53;;;25.39;39.28
65666;BME280;52365;47.464;18.976;2022-08-05T01:03:37;99764.53;;;25.37;39.88
65666;BME280;52365;47.464;18.976;2022-08-05T01:04:13;99769.50;;;25.39;39.40
65666;BME280;52365;47.464;18.976;2022-08-05T01:04:49;99766.00;;;25.46;39.04
65666;BME280;52365;47.464;18.976;2022-08-05T01:05:26;99763.63;;;25.35;41.10
65666;BME280;52365;47.464;18.976;2022-08-05T01:06:02;99768.22;;;25.32;40.71
65666;BME280;52365;47.464;18.976;2022-08-05T01:06:38;99767.53;;;25.24;41.25
65666;BME280;52365;47.464;18.976;2022-08-05T01:07:14;99769.38;;;25.14;38.13
65666;BME280;52365;47.464;18.976;2022-08-05T01:07:50;99768.44;;;25.19;38.87
65666;BME280;52365;47.464;18.976;2022-08-05T01:08:27;99760.16;;;25.19;39.94
65666;BME280;52365;47.464;18.976;2022-08-05T01:09:03;99761.47;;;25.18;38.29
65666;BME280;52365;47.464;18.976;2022-08-05T01:09:41;99764.56;;;25.22;38.77
65666;BME280;52365;47.464;18.976;2022-08-05T01:10:23;99759.72;;;25.46;40.19
65666;BME280;52365;47.464;18.976;2022-08-05T01:11:15;99762.53;;;25.30;39.55
65666;BME280;52365;47.464;18.976;2022-08-05T01:11:54;99759.63;;;25.21;39.69
65666;BME280;52365;47.464;18.976;2022-08-05T01:12:33;99768.28;;;25.17;39.51
65666;BME280;52365;47.464;18.976;2022-08-05T01:13:15;99763.13;;;25.14;40.02
65666;BME280;52365;47.464;18.976;2022-08-05T01:14:09;99767.34;;;25.07;41.94
65666;BME280;52365;47.464;18.976;2022-08-05T01:14:51;99767.16;;;25.05;41.12
65666;BME280;52365;47.464;18.976;2022-08-05T01:15:33;99763.69;;;24.97;41.74
65666;BME280;52365;47.464;18.976;2022-08-05T01:16:25;99770.47;;;24.96;40.82
65666;BME280;52365;47.464;18.976;2022-08-05T01:17:09;99764.41;;;24.97;40.55
65666;BME280;52365;47.464;18.976;2022-08-05T01:17:50;99771.41;;;24.91;40.25
65666;BME280;52365;47.464;18.976;2022-08-05T01:18:33;99773.28;;;24.80;41.30
65666;BME280;52365;47.464;18.976;2022-08-05T01:20:28;99771.63;;;24.85;40.88
65666;BME280;52365;47.464;18.976;2022-08-05T01:25:42;99761.28;;;24.93;41.00
65666;BME280;52365;47.464;18.976;2022-08-05T01:26:46;99760.19;;;24.96;40.91
65666;BME280;52365;47.464;18.976;2022-08-05T01:27:48;99752.66;;;24.97;41.36
65666;BME280;52365;47.464;18.976;2022-08-05T01:29:15;99765.72;;;24.73;41.72
65666;BME280;52365;47.464;18.976;2022-08-05T01:29:55;99768.28;;;24.71;41.94
65666;BME280;52365;47.464;18.976;2022-08-05T01:30:37;99767.94;;;24.75;41.42
65666;BME280;52365;47.464;18.976;2022-08-05T01:31:23;99773.63;;;24.69;41.01
65666;BME280;52365;47.464;18.976;2022-08-05T01:32:02;99771.25;;;24.73;40.82
65666;BME280;52365;47.464;18.976;2022-08-05T01:32:43;99762.78;;;24.79;41.01
65666;BME280;52365;47.464;18.976;2022-08-05T01:33:26;99770.16;;;24.76;41.87
65666;BME280;52365;47.464;18.976;2022-08-05T01:34:25;99770.16;;;24.76;41.59
65666;BME280;52365;47.464;18.976;2022-08-05T01:35:09;99767.56;;;24.78;43.37
65666;BME280;52365;47.464;18.976;2022-08-05T01:35:48;99760.22;;;24.66;41.79
65666;BME280;52365;47.464;18.976;2022-08-05T01:36:29;99761.34;;;24.55;41.70
65666;BME280;52365;47.464;18.976;2022-08-05T01:37:49;99770.69;;;24.52;42.53
65666;BME280;52365;47.464;18.976;2022-08-05T01:38:05;99771.63;;;24.54;42.60
65666;BME280;52365;47.464;18.976;2022-08-05T01:38:45;99775.09;;;24.47;43.20
65666;BME280;52365;47.464;18.976;2022-08-05T01:39:23;99765.72;;;24.43;43.22
65666;BME280;52365;47.464;18.976;2022-08-05T01:40:02;99770.31;;;24.48;43.34
65666;BME280;52365;47.464;18.976;2022-08-05T01:40:41;99773.63;;;24.46;43.73
65666;BME280;52365;47.464;18.976;2022-08-05T01:41:21;99765.34;;;24.39;45.31
65666;BME280;52365;47.464;18.976;2022-08-05T01:41:58;99773.94;;;24.35;44.55
65666;BME280;52365;47.464;18.976;2022-08-05T01:42:38;99772.87;;;24.38;44.23
65666;BME280;52365;47.464;18.976;2022-08-05T01:43:16;99770.66;;;24.36;44.24
65666;BME280;52365;47.464;18.976;2022-08-05T01:43:54;99772.50;;;24.34;45.64
65666;BME280;52365;47.464;18.976;2022-08-05T01:44:32;99770.09;;;24.30;45.27
65666;BME280;52365;47.464;18.976;2022-08-05T01:45:09;99770.44;;;24.27;44.64
65666;BME280;52365;47.464;18.976;2022-08-05T01:45:47;99774.69;;;24.35;44.08
65666;BME280;52365;47.464;18.976;2022-08-05T01:46:24;99771.19;;;24.27;44.62
65666;BME280;52365;47.464;18.976;2022-08-05T01:47:01;99773.56;;;24.16;44.73
65666;BME280;52365;47.464;18.976;2022-08-05T01:47:37;99770.78;;;24.08;44.52
65666;BME280;52365;47.464;18.976;2022-08-05T01:48:15;99773.37;;;24.06;44.29
65666;BME280;52365;47.464;18.976;2022-08-05T01:48:53;99771.72;;;24.10;44.23
65666;BME280;52365;47.464;18.976;2022-08-05T01:49:31;99773.00;;;24.17;44.12
65666;BME280;52365;47.464;18.976;2022-08-05T01:50:11;99781.63;;;24.13;46.66
65666;BME280;52365;47.464;18.976;2022-08-05T01:50:50;99775.22;;;24.11;45.88
65666;BME280;52365;47.464;18.976;2022-08-05T01:51:30;99777.75;;;24.09;45.19
65666;BME280;52365;47.464;18.976;2022-08-05T01:52:06;99775.75;;;24.09;45.07
65666;BME280;52365;47.464;18.976;2022-08-05T01:52:45;99776.28;;;24.08;46.17
65666;BME280;52365;47.464;18.976;2022-08-05T01:53:23;99772.22;;;23.94;45.63
65666;BME280;52365;47.464;18.976;2022-08-05T01:54:01;99776.28;;;24.00;45.48
65666;BME280;52365;47.464;18.976;2022-08-05T01:54:41;99770.59;;;23.98;45.93
65666;BME280;52365;47.464;18.976;2022-08-05T01:55:21;99773.13;;;23.89;46.30
65666;BME280;52365;47.464;18.976;2022-08-05T01:56:00;99774.75;;;23.76;46.55
65666;BME280;52365;47.464;18.976;2022-08-05T01:56:39;99769.28;;;23.84;46.62
65666;BME280;52365;47.464;18.976;2022-08-05T01:57:19;99770.56;;;23.91;46.24
65666;BME280;52365;47.464;18.976;2022-08-05T01:58:00;99775.47;;;23.77;46.82
65666;BME280;52365;47.464;18.976;2022-08-05T01:58:40;99770.31;;;23.73;46.56
65666;BME280;52365;47.464;18.976;2022-08-05T01:59:20;99770.19;;;23.86;46.22
65666;BME280;52365;47.464;18.976;2022-08-05T02:00:01;99777.16;;;23.80;47.00
65666;BME280;52365;47.464;18.976;2022-08-05T02:00:41;99779.72;;;23.85;46.72
65666;BME280;52365;47.464;18.976;2022-08-05T02:01:19;99775.44;;;23.69;43.59
65666;BME280;52365;47.464;18.976;2022-08-05T02:01:57;99774.25;;;23.57;43.37
65666;BME280;52365;47.464;18.976;2022-08-05T02:02:38;99775.88;;;23.52;43.37
65666;BME280;52365;47.464;18.976;2022-08-05T02:03:39;99775.19;;;23.59;43.51
65666;BME280;52365;47.464;18.976;2022-08-05T02:04:16;99776.12;;;23.62;44.67
65666;BME280;52365;47.464;18.976;2022-08-05T02:04:56;99772.16;;;23.71;44.14
65666;BME280;52365;47.464;18.976;2022-08-05T02:05:35;99770.44;;;23.60;45.02
65666;BME280;52365;47.464;18.976;2022-08-05T02:06:12;99773.37;;;23.62;44.97
65666;BME280;52365;47.464;18.976;2022-08-05T02:06:49;99777.59;;;23.63;44.06
65666;BME280;52365;47.464;18.976;2022-08-05T02:07:25;99774.34;;;23.72;43.90
65666;BME280;52365;47.464;18.976;2022-08-05T02:08:02;99773.41;;;23.70;42.66
65666;BME280;52365;47.464;18.976;2022-08-05T02:08:38;99768.81;;;23.65;42.17
65666;BME280;52365;47.464;18.976;2022-08-05T02:09:15;99776.53;;;23.66;42.30
65666;BME280;52365;47.464;18.976;2022-08-05T02:09:51;99774.63;;;23.61;43.20
65666;BME280;52365;47.464;18.976;2022-08-05T02:10:32;99773.56;;;23.64;43.03
65666;BME280;52365;47.464;18.976;2022-08-05T02:11:11;99773.25;;;23.68;42.92
65666;BME280;52365;47.464;18.976;2022-08-05T02:12:07;99771.06;;;23.74;43.83
65666;BME280;52365;47.464;18.976;2022-08-05T02:13:02;99773.25;;;23.68;42.21
65666;BME280;52365;47.464;18.976;2022-08-05T02:14:20;99778.41;;;23.71;42.33
65666;BME280;52365;47.464;18.976;2022-08-05T02:15:53;99770.16;;;23.79;44.65
65666;BME280;52365;47.464;18.976;2022-08-05T02:17:02;99772.16;;;23.71;45.10
65666;BME280;52365;47.464;18.976;2022-08-05T02:17:37;99778.34;;;23.63;45.32
65666;BME280;52365;47.464;18.976;2022-08-05T02:18:23;99776.72;;;23.68;45.36
65666;BME280;52365;47.464;18.976;2022-08-05T02:19:04;99768.84;;;23.72;45.12
65666;BME280;52365;47.464;18.976;2022-08-05T02:19:45;99772.53;;;23.75;44.67
65666;BME280;52365;47.464;18.976;2022-08-05T02:20:25;99773.37;;;23.62;46.47
65666;BME280;52365;47.464;18.976;2022-08-05T02:21:11;99775.28;;;23.75;45.53
65666;BME280;52365;47.464;18.976;2022-08-05T02:22:15;99773.66;;;23.79;45.41
65666;BME280;52365;47.464;18.976;2022-08-05T02:22:56;99772.72;;;23.77;45.46
65666;BME280;52365;47.464;18.976;2022-08-05T02:23:36;99777.22;;;23.59;46.41
65666;BME280;52365;47.464;18.976;2022-08-05T02:24:17;99777.06;;;23.65;46.43
65666;BME280;52365;47.464;18.976;2022-08-05T02:25:02;99769.12;;;23.61;46.17
65666;BME280;52365;47.464;18.976;2022-08-05T02:25:42;99770.25;;;23.58;46.22
65666;BME280;52365;47.464;18.976;2022-08-05T02:26:37;99769.81;;;23.46;44.37
65666;BME280;52365;47.464;18.976;2022-08-05T02:27:15;99768.38;;;23.53;44.08
65666;BME280;52365;47.464;18.976;2022-08-05T02:27:55;99768.38;;;23.53;42.73
65666;BME280;52365;47.464;18.976;2022-08-05T02:28:36;99768.56;;;23.55;45.45
65666;BME280;52365;47.464;18.976;2022-08-05T02:29:15;99769.84;;;23.54;45.94
65666;BME280;52365;47.464;18.976;2022-08-05T02:29:55;99768.75;;;23.57;46.25
65666;BME280;52365;47.464;18.976;2022-08-05T02:31:01;99770.25;;;23.58;46.28
65666;BME280;52365;47.464;18.976;2022-08-05T02:31:41;99770.59;;;23.54;47.90
65666;BME280;52365;47.464;18.976;2022-08-05T02:32:20;99769.84;;;23.54;47.67
65666;BME280;52365;47.464;18.976;2022-08-05T02:32:58;99769.31;;;23.55;46.88
65666;BME280;52365;47.464;18.976;2022-08-05T02:33:38;99764.53;;;23.56;44.53
65666;BME280;52365;47.464;18.976;2022-08-05T02:34:16;99767.66;;;23.60;44.52
65666;BME280;52365;47.464;18.976;2022-08-05T02:34:54;99763.31;;;23.65;45.01
65666;BME280;52365;47.464;18.976;2022-08-05T02:35:32;99763.84;;;23.63;46.53
65666;BME280;52365;47.464;18.976;2022-08-05T02:36:12;99769.03;;;23.67;45.51
65666;BME280;52365;47.464;18.976;2022-08-05T02:36:53;99763.91;;;23.71;45.90
65666;BME280;52365;47.464;18.976;2022-08-05T02:37:32;99768.66;;;23.70;46.79
65666;BME280;52365;47.464;18.976;2022-08-05T02:38:09;99763.25;;;23.57;47.71
65666;BME280;52365;47.464;18.976;2022-08-05T02:38:48;99760.72;;;23.59;47.39
65666;BME280;52365;47.464;18.976;2022-08-05T02:39:26;99762.34;;;23.54;47.23
65666;BME280;52365;47.464;18.976;2022-08-05T02:40:03;99756.63;;;23.52;47.15
65666;BME280;52365;47.464;18.976;2022-08-05T02:40:41;99757.37;;;23.53;47.16
65666;BME280;52365;47.464;18.976;2022-08-05T02:41:19;99756.50;;;23.58;47.07
65666;BME280;52365;47.464;18.976;2022-08-05T02:41:56;99758.69;;;23.59;47.23
65666;BME280;52365;47.464;18.976;2022-08-05T02:42:34;99754.12;;;23.62;47.05
65666;BME280;52365;47.464;18.976;2022-08-05T02:43:12;99754.12;;;23.62;47.22
65666;BME280;52365;47.464;18.976;2022-08-05T02:43:49;99751.72;;;23.58;48.45
65666;BME280;52365;47.464;18.976;2022-08-05T02:44:27;99763.81;;;23.55;47.96
65666;BME280;52365;47.464;18.976;2022-08-05T02:45:06;99758.25;;;23.48;47.01
65666;BME280;52365;47.464;18.976;2022-08-05T02:45:44;99757.69;;;23.42;47.03
65666;BME280;52365;47.464;18.976;2022-08-05T02:46:21;99757.31;;;23.37;46.95
65666;BME280;52365;47.464;18.976;2022-08-05T02:46:58;99756.22;;;23.41;47.16
65666;BME280;52365;47.464;18.976;2022-08-05T02:47:36;99760.44;;;23.42;47.52
65666;BME280;52365;47.464;18.976;2022-08-05T02:48:13;99760.62;;;23.44;47.81
65666;BME280;52365;47.464;18.976;2022-08-05T02:48:51;99763.59;;;23.46;47.00
65666;BME280;52365;47.464;18.976;2022-08-05T02:49:31;99755.84;;;23.44;48.31
65666;BME280;52365;47.464;18.976;2022-08-05T02:50:09;99762.81;;;23.37;47.77
65666;BME280;52365;47.464;18.976;2022-08-05T02:50:48;99765.00;;;23.31;49.80
65666;BME280;52365;47.464;18.976;2022-08-05T02:51:26;99758.88;;;23.25;48.21
65666;BME280;52365;47.464;18.976;2022-08-05T02:52:06;99755.06;;;23.28;47.58
65666;BME280;52365;47.464;18.976;2022-08-05T02:52:44;99763.88;;;23.27;48.74
65666;BME280;52365;47.464;18.976;2022-08-05T02:53:23;99760.13;;;23.17;49.78
65666;BME280;52365;47.464;18.976;2022-08-05T02:53:59;99752.22;;;23.13;49.51
65666;BME280;52365;47.464;18.976;2022-08-05T02:54:37;99754.44;;;23.15;49.02
65666;BME280;52365;47.464;18.976;2022-08-05T02:55:14;99752.22;;;23.13;48.10
65666;BME280;52365;47.464;18.976;2022-08-05T02:55:51;99752.03;;;23.11;49.24
65666;BME280;52365;47.464;18.976;2022-08-05T02:56:28;99758.72;;;23.23;48.51
65666;BME280;52365;47.464;18.976;2022-08-05T02:57:07;99751.38;;;23.26;48.34
65666;BME280;52365;47.464;18.976;2022-08-05T02:57:45;99755.41;;;23.25;49.27
65666;BME280;52365;47.464;18.976;2022-08-05T02:58:22;99749.47;;;23.13;47.83
65666;BME280;52365;47.464;18.976;2022-08-05T02:58:59;99754.94;;;23.05;47.66
65666;BME280;52365;47.464;18.976;2022-08-05T02:59:36;99757.87;;;23.07;47.93
65666;BME280;52365;47.464;18.976;2022-08-05T03:00:12;99751.31;;;23.10;47.92
65666;BME280;52365;47.464;18.976;2022-08-05T03:00:52;99753.84;;;23.08;48.38
65666;BME280;52365;47.464;18.976;2022-08-05T03:01:30;99750.91;;;23.06;46.94
65666;BME280;52365;47.464;18.976;2022-08-05T03:02:10;99752.59;;;23.09;46.76
65666;BME280;52365;47.464;18.976;2022-08-05T03:02:48;99750.91;;;23.06;49.73
65666;BME280;52365;47.464;18.976;2022-08-05T03:03:25;99754.28;;;23.20;48.35
65666;BME280;52365;47.464;18.976;2022-08-05T03:04:04;99754.56;;;23.09;47.69
65666;BME280;52365;47.464;18.976;2022-08-05T03:04:41;99753.81;;;23.01;47.94
65666;BME280;52365;47.464;18.976;2022-08-05T03:05:18;99750.50;;;23.02;48.02
65666;BME280;52365;47.464;18.976;2022-08-05T03:05:55;99748.84;;;22.99;48.95
65666;BME280;52365;47.464;18.976;2022-08-05T03:06:33;99752.59;;;22.88;49.27
65666;BME280;52365;47.464;18.976;2022-08-05T03:07:11;99747.84;;;22.89;49.33
65666;BME280;52365;47.464;18.976;2022-08-05T03:07:48;99746.38;;;22.88;48.24
65666;BME280;52365;47.464;18.976;2022-08-05T03:08:24;99746.06;;;22.92;48.22
65666;BME280;52365;47.464;18.976;2022-08-05T03:09:01;99745.31;;;22.91;48.03
65666;BME280;52365;47.464;18.976;2022-08-05T03:09:39;99750.28;;;22.93;48.21
65666;BME280;52365;47.464;18.976;2022-08-05T03:10:17;99746.62;;;22.98;48.13
65666;BME280;52365;47.464;18.976;2022-08-05T03:10:53;99750.13;;;22.98;49.73
65666;BME280;52365;47.464;18.976;2022-08-05T03:11:29;99745.84;;;22.90;48.96
65666;BME280;52365;47.464;18.976;2022-08-05T03:12:05;99744.22;;;22.94;48.61
65666;BME280;52365;47.464;18.976;2022-08-05T03:12:42;99740.19;;;22.95;48.27
65666;BME280;52365;47.464;18.976;2022-08-05T03:13:18;99747.31;;;22.91;48.20
65666;BME280;52365;47.464;18.976;2022-08-05T03:13:54;99746.84;;;22.79;49.84
65666;BME280;52365;47.464;18.976;2022-08-05T03:14:30;99750.84;;;22.78;49.53
65666;BME280;52365;47.464;18.976;2022-08-05T03:15:08;99746.09;;;22.78;49.25
65666;BME280;52365;47.464;18.976;2022-08-05T03:15:46;99751.06;;;22.80;49.23
65666;BME280;52365;47.464;18.976;2022-08-05T03:16:22;99751.00;;;22.72;50.10
65666;BME280;52365;47.464;18.976;2022-08-05T03:16:59;99753.56;;;22.70;49.61
65666;BME280;52365;47.464;18.976;2022-08-05T03:17:36;99742.44;;;22.76;49.58
65666;BME280;52365;47.464;18.976;2022-08-05T03:18:12;99746.09;;;22.78;49.04
65666;BME280;52365;47.464;18.976;2022-08-05T03:18:49;99744.13;;;22.79;48.85
65666;BME280;52365;47.464;18.976;2022-08-05T03:19:26;99744.13;;;22.79;49.52
65666;BME280;52365;47.464;18.976;2022-08-05T03:20:03;99745.38;;;22.78;50.82
65666;BME280;52365;47.464;18.976;2022-08-05T03:20:39;99745.66;;;22.67;49.27
65666;BME280;52365;47.464;18.976;2022-08-05T03:21:15;99738.81;;;22.60;48.64
65666;BME280;52365;47.464;18.976;2022-08-05T03:21:52;99745.41;;;22.57;48.77
65666;BME280;52365;47.464;18.976;2022-08-05T03:22:28;99743.59;;;22.59;49.28
65666;BME280;52365;47.464;18.976;2022-08-05T03:23:05;99736.06;;;22.60;49.26
65666;BME280;52365;47.464;18.976;2022-08-05T03:23:43;99733.34;;;22.60;49.38
65666;BME280;52365;47.464;18.976;2022-08-05T03:24:20;99732.81;;;22.61;49.94
65666;BME280;52365;47.464;18.976;2022-08-05T03:24:56;99736.28;;;22.62;49.87
65666;BME280;52365;47.464;18.976;2022-08-05T03:25:34;99727.72;;;22.66;49.51
65666;BME280;52365;47.464;18.976;2022-08-05T03:26:10;99731.19;;;22.66;49.17
65666;BME280;52365;47.464;18.976;2022-08-05T03:26:46;99732.31;;;22.71;48.98
65666;BME280;52365;47.464;18.976;2022-08-05T03:27:23;99731.44;;;22.76;48.87
65666;BME280;52365;47.464;18.976;2022-08-05T03:28:01;99731.38;;;22.68;50.34
65666;BME280;52365;47.464;18.976;2022-08-05T03:28:37;99731.94;;;22.67;50.20
65666;BME280;52365;47.464;18.976;2022-08-05T03:29:13;99734.81;;;22.61;49.55
65666;BME280;52365;47.464;18.976;2022-08-05T03:29:49;99736.63;;;22.58;50.27
65666;BME280;52365;47.464;18.976;2022-08-05T03:30:27;99730.94;;;22.56;50.66